Terminal Aerodrome Forecast
Issued by NWS Des Moines, IA

Home | Current Version | Previous Version | Text Only | Print | Product List | Glossary On
Versions: 1 2 3 4 5 6 7 8 9 10 11 12 13 14 15 16 17 18 19 20 21 22 23 24 25 26 27 28 29 30 31 32 33 34 35 36 37 38 39 40 41
000
FTUS43 KDMX 282320
TAFALO
TAF
KALO 282320Z 2900/2924 14010KT P6SM BKN150
     FM290400 16005KT 4SM BR SCT006 BKN150
     FM290900 17004KT 3/4SM BR BKN003 BKN150
     FM291500 19008KT 6SM HZ SCT003 SCT150
     FM291800 21011KT P6SM SCT150=

USA.gov is the U.S. government's official web portal to all federal, state and local government web resources and services.